River Forest, Illinois
Current Conditions -  °F | °C
As of 1:53 PM on Friday 31 Oct 2014 (Local Time) from KMDW Reporting Station
Broken Clouds Broken Clouds  
Wind Chill:   Ceiling: 3900
Heat Index:   Visibility: 10mi
Dew Point: -3°   Wind: 37mph
Humidity: 51%   Direction: 340°NNW
Pressure: 30.15"   Gusts: 46mph
Location:  41.88°N, 87.82°W
Report Text: KMDW 311853Z 34032G40KT 10SM BKN039 BKN055 06/M03 A3015 RMK AO2 PK WND 34046/1822 SNE17 SLP213 P0000 T00611033
Loading
Personal Weather Stations






























Interactive Weather Map
Tropical Storm Tracking
New forecast layout! Learn more

10-Day Weather Forecast

Advertisements
Track Severe Weather on mobile